Terminal Aerodrome Forecast
Issued by NWS Twin Cities, MN

Home | Current Version | Previous Version | Graphics & Text | Print | Product List | Glossary On
Versions: 1 2 3 4 5 6 7 8 9 10 11 12 13 14 15 16 17 18 19 20 21 22 23 24 25 26 27 28 29 30
000
FTUS43 KMPX 152000 AAA
TAFMSP
TAF AMD
KMSP 152052Z 1521/1624 03008KT 1 1/2SM RA BR OVC005
      TEMPO 1601/1603 -RAPL
     FM160400 33015G26KT 3/4SM -SN BR OVC005
     FM160600 33022G28KT 4SM -SN BR OVC012
     FM161200 33017G24KT P6SM OVC015
     FM162100 32015G21KT P6SM BKN017 OVC025=

USA.gov is the U.S. government's official web portal to all federal, state and local government web resources and services.